Sarasota, Florida
Current Conditions -  °F | °C
As of 4:53 PM on Friday 24 Oct 2014 (Local Time) from KSRQ Reporting Station
Clear Clear  
Wind Chill: 81°   Ceiling: Unl
Heat Index: 81°   Visibility: 10mi
Dew Point: 54°   Wind: 10mph
Humidity: 39%   Direction: 30°NNE
Pressure: 29.87"   Gusts: NA
Location:  27.34°N, 82.54°W
Report Text: KSRQ 242053Z AUTO 03009KT 10SM CLR 27/12 A2987 RMK AO2 SLP112 T02720122 56018
Loading
Personal Weather Stations






























Interactive Weather Map New forecast layout! Learn more

10-Day Weather Forecast

Advertisements
Track Severe Weather on mobile